Airfield :
LOGIN :

Register | Disclaimer

   EN    FR    IT 

 










Legend :    VFR   Marginal VFR   IFR   Intensive IFR   Very Intensive IFR
Visi :
Ceiling :
>= 8 km
>= 3000ft
5 to 8 km
1000 to 3000 ft
1500m to 5 km
500 to 1000 ft
800 to 1500m
200 to 500 ft
< 800m
< 200 ft
Symbols :   Thunderstorms  Fog  Heavy snow  Heavy precipitations  Wind > 20 kt
SIGMETs :     Misc.  Thunderstorms  Icing  Turbulence  Mountain Waves  Volcanic Ashes






- Airport Elevation : 464 ft
- IATA code : EVX


LFOE - Evreux

CURRENT METAR :
  • 270930Z AUTO 26005KT 230V290 0800 R22/1200N FG VV/// 06/06 Q1014 TEMPO 0500

EXPIRED METARs :
  • 270900Z AUTO 26006KT 0800 R22/1000U FG VV/// 06/05 Q1014 TEMPO 0500
  • 270830Z AUTO 24007KT 0900 R22/1200N FG VV/// 05/05 Q1014 TEMPO 2000 BR OVC002
  • 270800Z AUTO 23009KT 1100 1000 R22/1400D BR VV/// 05/04 Q1014 NOSIG
  • 270730Z AUTO 24007KT 2100 BR VV/// 04/04 Q1014 TEMPO 0800 -DZ FG
  • 270700Z AUTO 24007KT 2300 BR OVC002 04/04 Q1013 TEMPO 0800 -DZ FG VV///

Expired Forecast.



MET'MAP, your aeronautical weather chart ! - Copyright ORBIFLY December 2007 - Disclaimer

ORBIFLY MET'MAP TEAM :

Programming & Development : Alexandra Zaïnal
Concept & original design : Baudouin d'Aumeries
Assistance for programming : Marc-Olivier Méhu
Technical & hardware support : Manuel Goepfert

Contact : metmap@orbifly.com




SOURCES & CREDITS :

   NOAA